»·PEaware :: N712TF KBOI-KSNA

N712TF :: KBOI-KSNA

FLIGHT INFORMATION

Flight Status: Arrived
Operator: Privately registered:
United States
More flights under this callsign
Pilot: Tyler J. (19619)
Aircraft: BOEING 717-200
(B712)
More flights by this aircraft type
Origin: KBOI Boise Air Terminal/Gowen
United States
Destination: KSNA John Wayne-Orange Co
United States
More flights between these airports :: More routes between these airports
Route: +HYVAL REO OAL VIS FIM TANDY5
File this flight plan on PilotEdge
Remarks:
Altitude:
(Current/Filed)
35,000ft
Speed:
(Current/Filed)
450kts
Departed: 07-May-20 09:23 AM
Arrived: 07-May-20 11:16 AM
Distance/Time
Traveled:
599nm/1:53
Distance/Time
To Go:
Arrived

Flight Plot

Page will automatically refresh every two minutes.


Map Options




Map Legend


Flown Route
Filed Route
Departure Airport
Arrival Airport
Navaid (VOR, NDB)
Fix

Horizontal Profiles

Position Reports

Time Latitude Longitude Heading Altitude Ground
Speed
07-May-20 08:51 43.564008 -116.239853 351 2879ft 0kts
07-May-20 08:52 43.564008 -116.239853 351 2879ft 0kts
07-May-20 08:53 43.564008 -116.239853 351 2879ft 0kts
07-May-20 08:54 43.564008 -116.239853 351 2879ft 0kts
07-May-20 08:55 43.564008 -116.239853 351 2879ft 0kts
07-May-20 08:56 43.564008 -116.239853 351 2879ft 0kts
07-May-20 08:57 43.564008 -116.239853 351 2879ft 0kts
07-May-20 08:58 43.564008 -116.239853 351 2879ft 0kts
07-May-20 08:59 43.564008 -116.239853 351 2879ft 0kts
07-May-20 09:00 43.564008 -116.239853 351 2879ft 0kts
07-May-20 09:01 43.564008 -116.239853 351 2879ft 0kts
07-May-20 09:02 43.564008 -116.239853 351 2879ft 0kts
07-May-20 09:03 43.564008 -116.239853 351 2879ft 0kts
07-May-20 09:04 43.564008 -116.239853 351 2879ft 0kts
07-May-20 09:05 43.564008 -116.239853 351 2879ft 0kts
07-May-20 09:06 43.564008 -116.239853 351 2879ft 0kts
07-May-20 09:07 43.564009 -116.239853 351 2879ft 0kts
07-May-20 09:08 43.564009 -116.239853 350 2879ft 0kts
07-May-20 09:09 43.564010 -116.239853 350 2879ft 0kts
07-May-20 09:10 43.564011 -116.239853 350 2879ft 0kts
07-May-20 09:11 43.564011 -116.239853 350 2879ft 0kts
07-May-20 09:12 43.564012 -116.239854 350 2879ft 0kts
07-May-20 09:13 43.564013 -116.239854 350 2879ft 0kts
07-May-20 09:14 43.564014 -116.239854 350 2879ft 0kts
07-May-20 09:15 43.564014 -116.239854 350 2879ft 0kts
07-May-20 09:16 43.564015 -116.239854 350 2879ft 0kts
07-May-20 09:17 43.564219 -116.240031 312 2879ft 10kts
07-May-20 09:18 43.567253 -116.242527 359 2879ft 12kts
07-May-20 09:19 43.568824 -116.242528 0 2879ft 0kts
07-May-20 09:20 43.568824 -116.242528 0 2879ft 0kts
07-May-20 09:21 43.569828 -116.242083 115 2879ft 0kts
07-May-20 09:22 43.556793 -116.203162 117 3515ft 197kts
07-May-20 09:23 43.535261 -116.134433 109 6548ft 202kts
07-May-20 09:24 43.507657 -116.052999 133 9137ft 252kts
07-May-20 09:25 43.442641 -116.063036 236 11683ft 290kts
07-May-20 09:26 43.401114 -116.179580 247 12245ft 382kts
07-May-20 09:27 43.353964 -116.313987 248 14661ft 395kts
07-May-20 09:28 43.305474 -116.451824 249 16968ft 405kts
07-May-20 09:29 43.255876 -116.592111 249 18994ft 413kts
07-May-20 09:30 43.204986 -116.735302 248 20788ft 420kts
07-May-20 09:31 43.153268 -116.880144 248 22342ft 427kts
07-May-20 09:32 43.085738 -117.016639 236 23769ft 440kts
07-May-20 09:33 43.009687 -117.148597 236 24994ft 445kts
07-May-20 09:34 42.932576 -117.282035 236 26138ft 448kts
07-May-20 09:35 42.855674 -117.414514 236 27580ft 442kts
07-May-20 09:36 42.779455 -117.545261 236 29092ft 437kts
07-May-20 09:37 42.704503 -117.673283 236 30661ft 430kts
07-May-20 09:38 42.630059 -117.798799 232 32194ft 426kts
07-May-20 09:39 42.521462 -117.866526 187 33666ft 463kts
07-May-20 09:40 42.392060 -117.862995 186 35031ft 463kts
07-May-20 09:41 42.263718 -117.860122 186 35455ft 459kts
07-May-20 09:42 42.136094 -117.857263 186 35459ft 458kts
07-May-20 09:43 42.008485 -117.854400 186 35454ft 458kts
07-May-20 09:44 41.880975 -117.851550 186 35446ft 458kts
07-May-20 09:45 41.753282 -117.848708 186 35436ft 458kts
07-May-20 09:46 41.625624 -117.845878 186 35428ft 458kts
07-May-20 09:48 41.497962 -117.843057 186 35420ft 459kts
07-May-20 09:49 41.369886 -117.840240 186 35414ft 459kts
07-May-20 09:50 41.242031 -117.837440 186 35409ft 459kts
07-May-20 09:51 41.114196 -117.834649 186 35407ft 460kts
07-May-20 09:52 40.986297 -117.831870 186 35406ft 460kts
07-May-20 09:53 40.858387 -117.829099 186 35406ft 460kts
07-May-20 09:54 40.730375 -117.826338 186 35405ft 460kts
07-May-20 09:55 40.602315 -117.823586 186 35404ft 460kts
07-May-20 09:56 40.473869 -117.820837 186 35399ft 461kts
07-May-20 09:57 40.345662 -117.818103 186 35394ft 461kts
07-May-20 09:58 40.217557 -117.815378 186 35389ft 460kts
07-May-20 09:59 40.089428 -117.812670 186 35386ft 460kts
07-May-20 10:00 39.961467 -117.809972 186 35378ft 460kts
07-May-20 10:01 39.833387 -117.807281 186 35377ft 460kts
07-May-20 10:02 39.704993 -117.804595 186 35376ft 460kts
07-May-20 10:03 39.577182 -117.801930 186 35368ft 460kts
07-May-20 10:04 39.449199 -117.799268 186 35367ft 459kts
07-May-20 10:04 39.342267 -117.797058 186 35366ft 459kts
07-May-20 10:06 39.193461 -117.793985 186 35366ft 458kts
07-May-20 10:07 39.065555 -117.791361 185 35365ft 458kts
07-May-20 10:07 38.959810 -117.789191 185 35362ft 457kts
07-May-20 10:09 38.811297 -117.786164 185 35338ft 457kts
07-May-20 10:09 38.705114 -117.784003 185 35332ft 456kts
07-May-20 10:10 38.578482 -117.781439 185 35327ft 455kts
07-May-20 10:12 38.430950 -117.778462 185 35322ft 454kts
07-May-20 10:12 38.325340 -117.776336 185 35318ft 453kts
07-May-20 10:13 38.199134 -117.773810 185 35316ft 454kts
07-May-20 10:14 38.072892 -117.771297 184 35311ft 453kts
07-May-20 10:15 37.958815 -117.815362 219 35297ft 427kts
07-May-20 10:16 37.864763 -117.906796 218 35281ft 427kts
07-May-20 10:17 37.774935 -118.003154 224 35270ft 424kts
07-May-20 10:18 37.685080 -118.099753 224 35261ft 425kts
07-May-20 10:19 37.595055 -118.196217 224 35262ft 424kts
07-May-20 10:20 37.504968 -118.292435 224 35266ft 425kts
07-May-20 10:21 37.414722 -118.388507 224 35252ft 425kts
07-May-20 10:22 37.324189 -118.484568 224 35252ft 426kts
07-May-20 10:23 37.233732 -118.580233 223 35261ft 425kts
07-May-20 10:24 37.142859 -118.676027 223 35270ft 426kts
07-May-20 10:25 37.051914 -118.771589 223 35266ft 426kts
07-May-20 10:26 36.960908 -118.866908 223 35193ft 427kts
07-May-20 10:27 36.869791 -118.962029 223 35178ft 427kts
07-May-20 10:28 36.778295 -119.057242 223 35147ft 427kts
07-May-20 10:29 36.686875 -119.152073 222 35100ft 428kts
07-May-20 10:30 36.595122 -119.246942 222 35086ft 428kts
07-May-20 10:31 36.503181 -119.341708 222 35075ft 429kts
07-May-20 10:32 36.410703 -119.435312 216 35068ft 431kts
07-May-20 10:33 36.293043 -119.460233 170 35068ft 457kts
07-May-20 10:34 36.169585 -119.421022 170 35069ft 457kts
07-May-20 10:35 36.046181 -119.383476 170 35077ft 457kts
07-May-20 10:36 35.922759 -119.346013 170 35079ft 457kts
07-May-20 10:37 35.798965 -119.308554 170 35079ft 457kts
07-May-20 10:38 35.675787 -119.271403 170 35077ft 457kts
07-May-20 10:39 35.552230 -119.234256 170 35075ft 457kts
07-May-20 10:40 35.428821 -119.197271 170 35074ft 457kts
07-May-20 10:41 35.305170 -119.160332 170 35077ft 457kts
07-May-20 10:42 35.181251 -119.123426 170 35083ft 457kts
07-May-20 10:43 35.057023 -119.095079 177 35064ft 452kts
07-May-20 10:44 34.939676 -119.054504 169 33547ft 433kts
07-May-20 10:45 34.824307 -119.020106 169 31624ft 420kts
07-May-20 10:46 34.712679 -118.986706 169 29746ft 406kts
07-May-20 10:47 34.600313 -118.953207 169 26342ft 425kts
07-May-20 10:48 34.489992 -118.920376 169 23520ft 410kts
07-May-20 10:49 34.370954 -118.884987 168 22772ft 450kts
07-May-20 10:50 34.251607 -118.842099 166 21653ft 447kts
07-May-20 10:51 34.136043 -118.799686 166 19091ft 424kts
07-May-20 10:52 34.025736 -118.759344 166 16755ft 410kts
07-May-20 10:53 33.918258 -118.720123 165 14510ft 398kts
07-May-20 10:54 33.812720 -118.681677 165 14021ft 396kts
07-May-20 10:55 33.707033 -118.643661 165 14031ft 393kts
07-May-20 10:56 33.602651 -118.605432 157 14041ft 395kts
07-May-20 10:57 33.510228 -118.532554 146 14063ft 398kts
07-May-20 10:58 33.420027 -118.455723 138 14077ft 400kts
07-May-20 10:59 33.400210 -118.331190 64 14084ft 413kts
07-May-20 11:00 33.477875 -118.232431 39 12787ft 403kts
07-May-20 11:01 33.557020 -118.155949 38 11457ft 301kts
07-May-20 11:02 33.616468 -118.099523 38 10779ft 259kts
07-May-20 11:03 33.671589 -118.048428 38 8609ft 247kts
07-May-20 11:04 33.724567 -118.001592 38 6318ft 230kts
07-May-20 11:05 33.772589 -117.958565 37 4992ft 191kts
07-May-20 11:06 33.821663 -117.914060 38 5005ft 227kts
07-May-20 11:07 33.872224 -117.868139 37 5005ft 228kts
07-May-20 11:08 33.922755 -117.822098 37 5013ft 228kts
07-May-20 11:09 33.932039 -117.756880 128 4853ft 236kts
07-May-20 11:10 33.870765 -117.742742 199 3691ft 223kts
07-May-20 11:11 33.818116 -117.775861 208 2987ft 207kts
07-May-20 11:12 33.773574 -117.806506 208 2921ft 186kts
07-May-20 11:13 33.730570 -117.834327 207 1598ft 143kts
07-May-20 11:14 33.695086 -117.856431 207 484ft 146kts
07-May-20 11:15 33.670004 -117.872421 207 64ft 23kts
07-May-20 11:16 33.669106 -117.872086 124 64ft 0kts
07-May-20 11:17 33.668363 -117.871945 218 64ft 13kts
07-May-20 11:18 33.666551 -117.872566 87 64ft 3kts
07-May-20 11:19 33.666770 -117.872293 36 64ft 0kts
07-May-20 11:20 33.666770 -117.872293 36 64ft 0kts
07-May-20 11:21 33.666770 -117.872293 36 64ft 0kts
07-May-20 11:22 33.666770 -117.872293 36 64ft 0kts
07-May-20 11:23 33.666770 -117.872293 36 64ft 0kts
07-May-20 11:24 33.666770 -117.872293 36 64ft 0kts
07-May-20 11:25 33.666770 -117.872293 36 64ft 0kts
07-May-20 11:26 33.666770 -117.872293 36 64ft 0kts
07-May-20 11:27 33.666770 -117.872293 36 64ft 0kts
07-May-20 11:28 33.666770 -117.872293 36 64ft 0kts
07-May-20 11:29 33.666770 -117.872293 36 64ft 0kts
07-May-20 11:30 33.666770 -117.872293 36 64ft 0kts

Navigation Log

Ident Type
Flight plan parsing failed, navigation log unavailable